createdAt,value
2018-08-20T00:00:58.745Z,16.85
2018-08-20T00:03:27.405Z,16.86
2018-08-20T00:05:56.354Z,16.86
2018-08-20T00:08:25.605Z,16.87
2018-08-20T00:10:56.638Z,16.88
2018-08-20T00:13:25.641Z,16.88
2018-08-20T00:15:54.735Z,16.89
2018-08-20T00:18:29.041Z,16.88
2018-08-20T00:20:57.566Z,16.83
2018-08-20T00:23:26.312Z,16.77
2018-08-20T00:25:57.993Z,16.71
2018-08-20T00:28:27.013Z,16.65
2018-08-20T00:30:55.473Z,16.61
2018-08-20T00:33:24.126Z,16.53
2018-08-20T00:35:53.265Z,16.43
2018-08-20T00:38:21.737Z,16.31
2018-08-20T00:40:50.240Z,16.18
2018-08-20T00:43:19.018Z,16.08
2018-08-20T00:45:47.472Z,15.97
2018-08-20T00:48:15.938Z,15.86
2018-08-20T00:50:44.753Z,15.77
2018-08-20T00:53:13.292Z,15.69
2018-08-20T00:55:41.745Z,15.61
2018-08-20T00:58:10.317Z,15.57
2018-08-20T01:00:38.750Z,15.52
2018-08-20T01:03:07.597Z,15.48
2018-08-20T01:05:36.253Z,15.49
2018-08-20T01:08:04.808Z,15.54
2018-08-20T01:10:33.307Z,15.55
2018-08-20T01:13:02.089Z,15.53
2018-08-20T01:15:30.552Z,15.50
2018-08-20T01:17:58.980Z,15.52
2018-08-20T01:20:27.609Z,15.51
2018-08-20T01:22:56.069Z,15.51
2018-08-20T01:25:24.580Z,15.55
2018-08-20T01:27:53.093Z,15.58
2018-08-20T01:30:21.609Z,15.63
2018-08-20T01:32:50.123Z,15.67
2018-08-20T01:35:27.007Z,15.67
2018-08-20T01:37:55.529Z,15.66
2018-08-20T01:40:24.779Z,15.63
2018-08-20T01:42:53.912Z,15.64
2018-08-20T01:45:22.389Z,15.65
2018-08-20T01:47:50.829Z,15.68
2018-08-20T01:50:19.693Z,15.63
2018-08-20T01:52:48.465Z,15.50
2018-08-20T01:55:16.960Z,15.64
2018-08-20T01:57:45.630Z,15.63
2018-08-20T02:00:14.128Z,15.62
2018-08-20T02:02:42.697Z,15.61
2018-08-20T02:05:11.769Z,15.57
2018-08-20T02:07:40.315Z,15.61
2018-08-20T02:10:08.823Z,15.62
2018-08-20T02:12:37.412Z,15.66
2018-08-20T02:15:05.952Z,15.69
2018-08-20T02:17:34.413Z,15.72
2018-08-20T02:20:03.273Z,15.75
2018-08-20T02:22:32.053Z,15.73
2018-08-20T02:25:01.107Z,15.77
2018-08-20T02:27:29.777Z,15.77
2018-08-20T02:29:58.462Z,15.78
2018-08-20T02:32:26.905Z,15.81
2018-08-20T02:34:55.407Z,15.77
2018-08-20T02:37:30.895Z,15.77
2018-08-20T02:39:59.749Z,15.83
2018-08-20T02:42:28.417Z,15.89
2018-08-20T02:44:57.450Z,15.92
2018-08-20T02:47:26.025Z,15.88
2018-08-20T02:49:54.489Z,15.89
2018-08-20T02:52:22.981Z,15.93
2018-08-20T02:54:51.499Z,15.97
2018-08-20T02:57:19.935Z,15.99
2018-08-20T02:59:48.442Z,15.98
2018-08-20T03:02:16.953Z,15.97
2018-08-20T03:04:45.397Z,15.96
2018-08-20T03:07:14.726Z,15.95
2018-08-20T03:09:43.532Z,15.98
2018-08-20T03:12:11.974Z,15.99
2018-08-20T03:14:40.957Z,16.01
2018-08-20T03:17:09.593Z,16.03
2018-08-20T03:19:38.053Z,16.02
2018-08-20T03:22:06.868Z,16.04
2018-08-20T03:24:35.562Z,16.07
2018-08-20T03:27:04.057Z,16.08
2018-08-20T03:29:32.538Z,16.08
2018-08-20T03:32:01.296Z,16.07
2018-08-20T03:34:30.458Z,16.10
2018-08-20T03:36:58.980Z,16.11
2018-08-20T03:39:27.669Z,16.14
2018-08-20T03:41:56.181Z,16.16
2018-08-20T03:44:24.673Z,16.19
2018-08-20T03:46:53.665Z,16.17
2018-08-20T03:49:22.238Z,16.10
2018-08-20T03:51:50.722Z,16.10
2018-08-20T03:54:19.771Z,16.11
2018-08-20T03:56:48.192Z,16.06
2018-08-20T03:59:30.128Z,16.03
2018-08-20T04:02:00.057Z,16.01
2018-08-20T04:04:28.963Z,16.03
2018-08-20T04:06:58.264Z,15.99
2018-08-20T04:09:27.257Z,15.94
2018-08-20T04:11:56.017Z,15.90
2018-08-20T04:14:24.474Z,15.90
2018-08-20T04:16:52.961Z,15.90
2018-08-20T04:19:21.687Z,15.91
2018-08-20T04:21:50.555Z,15.89
2018-08-20T04:24:19.371Z,15.86
2018-08-20T04:26:48.385Z,15.89
2018-08-20T04:29:16.906Z,15.95
2018-08-20T04:31:45.425Z,16.03
2018-08-20T04:34:14.290Z,16.12
2018-08-20T04:36:42.897Z,16.13
2018-08-20T04:39:12.104Z,16.17
2018-08-20T04:41:41.068Z,16.23
2018-08-20T04:44:09.771Z,16.29
2018-08-20T04:46:38.280Z,16.30
2018-08-20T04:49:07.411Z,16.32
2018-08-20T04:51:35.958Z,16.26
2018-08-20T04:54:04.412Z,16.29
2018-08-20T04:56:33.273Z,16.31
2018-08-20T04:59:01.825Z,16.23
2018-08-20T05:01:30.280Z,16.18
2018-08-20T05:03:59.383Z,16.13
2018-08-20T05:06:28.009Z,16.10
2018-08-20T05:08:56.453Z,16.18
2018-08-20T05:11:25.297Z,16.17
2018-08-20T05:13:53.777Z,16.17
2018-08-20T05:16:22.216Z,16.22
2018-08-20T05:18:50.777Z,16.21
2018-08-20T05:21:19.407Z,16.23
2018-08-20T05:23:47.845Z,16.23
2018-08-20T05:26:16.810Z,16.21
2018-08-20T05:28:45.459Z,16.20
2018-08-20T05:31:13.918Z,16.17
2018-08-20T05:33:42.845Z,16.18
2018-08-20T05:36:11.641Z,16.20
2018-08-20T05:38:40.933Z,16.19
2018-08-20T05:41:09.927Z,16.13
2018-08-20T05:43:39.017Z,16.18
2018-08-20T05:46:07.494Z,16.28
2018-08-20T05:48:36.501Z,16.39
2018-08-20T05:51:05.473Z,16.52
2018-08-20T05:53:33.964Z,16.64
2018-08-20T05:56:02.561Z,16.68
2018-08-20T05:58:31.273Z,16.76
2018-08-20T06:00:59.818Z,16.94
2018-08-20T06:03:28.619Z,17.05
2018-08-20T06:05:57.081Z,17.05
2018-08-20T06:08:25.544Z,17.22
2018-08-20T06:10:54.685Z,17.45
2018-08-20T06:13:23.313Z,17.64
2018-08-20T06:15:51.766Z,17.82
2018-08-20T06:18:20.717Z,18.01
2018-08-20T06:20:49.190Z,18.21
2018-08-20T06:23:17.626Z,18.41
2018-08-20T06:25:46.474Z,18.58
2018-08-20T06:28:15.753Z,18.66
2018-08-20T06:30:44.189Z,18.78
2018-08-20T06:33:12.833Z,18.89
2018-08-20T06:35:41.613Z,18.98
2018-08-20T06:38:10.816Z,18.99
2018-08-20T06:40:39.517Z,18.99
2018-08-20T06:43:08.207Z,19.02
2018-08-20T06:45:37.033Z,18.92
2018-08-20T06:48:05.886Z,18.89
2018-08-20T06:50:34.559Z,18.95
2018-08-20T06:53:05.845Z,18.84
2018-08-20T06:55:35.409Z,18.98
2018-08-20T06:58:03.907Z,19.02
2018-08-20T07:00:32.969Z,19.05
2018-08-20T07:03:02.029Z,19.01
2018-08-20T07:05:30.590Z,18.89
2018-08-20T07:07:59.054Z,18.98
2018-08-20T07:10:31.892Z,19.03
2018-08-20T07:13:12.035Z,19.11
2018-08-20T07:15:41.409Z,18.88
2018-08-20T07:18:10.520Z,18.83
2018-08-20T07:20:39.337Z,18.71
2018-08-20T07:23:14.501Z,18.77
2018-08-20T07:25:43.074Z,18.93
2018-08-20T07:28:11.607Z,19.02
2018-08-20T07:30:40.365Z,18.92
2018-08-20T07:33:10.256Z,18.83
2018-08-20T07:35:39.646Z,18.92
2018-08-20T07:38:09.861Z,18.81
2018-08-20T07:40:38.353Z,18.75
2018-08-20T07:43:06.849Z,18.84
2018-08-20T07:45:35.557Z,18.87
2018-08-20T07:48:05.139Z,18.80
2018-08-20T07:50:33.609Z,18.91
2018-08-20T07:53:02.565Z,18.94
2018-08-20T07:55:31.160Z,18.87
2018-08-20T07:57:59.797Z,18.83
2018-08-20T08:00:28.533Z,18.91
2018-08-20T08:02:57.244Z,18.95
2018-08-20T08:05:25.824Z,18.89
2018-08-20T08:07:54.697Z,18.82
2018-08-20T08:10:23.165Z,18.57
2018-08-20T08:12:51.681Z,18.44
2018-08-20T08:15:20.633Z,18.54
2018-08-20T08:17:49.469Z,18.70
2018-08-20T08:20:17.953Z,18.81
2018-08-20T08:22:46.985Z,18.89
2018-08-20T08:25:15.470Z,18.93
2018-08-20T08:27:44.001Z,18.97
2018-08-20T08:30:15.727Z,19.06
2018-08-20T08:32:44.326Z,19.21
2018-08-20T08:35:13.814Z,19.41
2018-08-20T08:37:43.724Z,19.56
2018-08-20T08:40:14.399Z,19.67
2018-08-20T08:42:43.033Z,19.73
2018-08-20T08:45:15.051Z,19.74
2018-08-20T08:47:43.982Z,19.83
2018-08-20T08:50:12.798Z,19.95
2018-08-20T08:52:42.049Z,19.85
2018-08-20T08:55:11.162Z,19.80
2018-08-20T08:57:40.705Z,20.05
2018-08-20T09:00:19.680Z,20.10
2018-08-20T09:02:48.321Z,20.18
2018-08-20T09:05:17.506Z,20.09
2018-08-20T09:07:46.101Z,19.76
2018-08-20T09:10:14.562Z,19.68
2018-08-20T09:12:43.194Z,19.78
2018-08-20T09:15:14.557Z,19.92
2018-08-20T09:17:44.265Z,20.12
2018-08-20T09:20:15.238Z,20.20
2018-08-20T09:22:44.897Z,20.35
2018-08-20T09:25:14.278Z,20.46
2018-08-20T09:27:44.167Z,20.35
2018-08-20T09:30:16.017Z,20.29
2018-08-20T09:32:45.473Z,20.32
2018-08-20T09:35:13.993Z,20.18
2018-08-20T09:37:43.161Z,20.12
2018-08-20T09:40:12.389Z,20.17
2018-08-20T09:42:41.598Z,20.22
2018-08-20T09:45:10.617Z,20.24
2018-08-20T09:47:40.698Z,20.20
2018-08-20T09:50:12.969Z,20.19
2018-08-20T09:52:41.629Z,20.17
2018-08-20T09:55:10.509Z,20.06
2018-08-20T09:57:39.722Z,19.95
2018-08-20T10:00:21.637Z,19.44
2018-08-20T10:02:51.285Z,20.32
2018-08-20T10:05:20.275Z,20.53
2018-08-20T10:07:49.337Z,20.71
2018-08-20T10:10:18.165Z,20.84
2018-08-20T10:12:47.176Z,20.92
2018-08-20T10:15:15.952Z,21.00
2018-08-20T10:17:44.890Z,21.07
2018-08-20T10:20:14.577Z,21.03
2018-08-20T10:22:43.697Z,20.76
2018-08-20T10:25:12.519Z,20.81
2018-08-20T10:27:41.246Z,20.91
2018-08-20T10:30:12.110Z,21.01
2018-08-20T10:32:40.946Z,21.11
2018-08-20T10:35:10.262Z,21.23
2018-08-20T10:37:38.836Z,21.12
2018-08-20T10:40:09.323Z,21.29
2018-08-20T10:42:38.605Z,21.43
2018-08-20T10:45:14.849Z,21.49
2018-08-20T10:47:44.886Z,21.57
2018-08-20T10:50:15.045Z,21.66
2018-08-20T10:52:45.426Z,21.73
2018-08-20T10:55:13.975Z,21.70
2018-08-20T10:57:43.562Z,21.43
2018-08-20T11:00:12.769Z,21.39
2018-08-20T11:02:42.036Z,21.28
2018-08-20T11:05:14.675Z,21.21
2018-08-20T11:07:43.253Z,21.16
2018-08-20T11:10:12.093Z,21.19
2018-08-20T11:12:40.698Z,21.31
2018-08-20T11:15:11.227Z,21.39
2018-08-20T11:17:39.954Z,21.46
2018-08-20T11:20:11.571Z,21.45
2018-08-20T11:22:41.353Z,21.42
2018-08-20T11:25:11.347Z,21.31
2018-08-20T11:27:40.355Z,21.27
2018-08-20T11:30:11.513Z,21.25
2018-08-20T11:32:40.646Z,21.21
2018-08-20T11:35:09.781Z,21.17
2018-08-20T11:37:38.349Z,20.64
2018-08-20T11:40:08.240Z,21.15
2018-08-20T11:42:36.685Z,21.17
2018-08-20T11:45:05.685Z,21.17
2018-08-20T11:47:34.210Z,21.11
2018-08-20T11:50:03.538Z,21.06
2018-08-20T11:52:32.453Z,21.08
2018-08-20T11:55:01.065Z,21.10
2018-08-20T11:57:29.544Z,21.23
2018-08-20T11:59:58.439Z,21.39
2018-08-20T12:02:26.963Z,21.57
2018-08-20T12:04:55.405Z,21.79
2018-08-20T12:07:24.519Z,21.97
2018-08-20T12:09:53.038Z,22.17
2018-08-20T12:12:21.485Z,22.34
2018-08-20T12:14:50.223Z,22.40
2018-08-20T12:17:18.787Z,22.45
2018-08-20T12:19:47.546Z,22.47
2018-08-20T12:22:16.615Z,22.49
2018-08-20T12:24:45.507Z,22.55
2018-08-20T12:27:14.558Z,22.65
2018-08-20T12:29:43.348Z,22.71
2018-08-20T12:32:11.846Z,22.73
2018-08-20T12:37:08.718Z,22.42
2018-08-20T12:39:37.413Z,22.25
2018-08-20T12:42:05.897Z,22.18
2018-08-20T12:44:34.867Z,22.15
2018-08-20T12:47:03.397Z,22.12
2018-08-20T12:49:31.976Z,22.03
2018-08-20T12:52:01.114Z,21.88
2018-08-20T12:54:29.825Z,21.76
2018-08-20T12:56:58.566Z,21.65
2018-08-20T12:59:27.188Z,21.56
2018-08-20T13:01:55.665Z,19.36
2018-08-20T13:04:24.110Z,21.34
2018-08-20T13:06:52.677Z,21.20
2018-08-20T13:09:21.753Z,21.12
2018-08-20T13:11:50.191Z,21.03
2018-08-20T13:14:18.982Z,20.98
2018-08-20T13:16:47.523Z,20.91
2018-08-20T13:19:16.010Z,20.78
2018-08-20T13:21:45.046Z,20.61
2018-08-20T13:24:13.557Z,20.50
2018-08-20T13:26:42.306Z,20.42
2018-08-20T13:29:11.349Z,20.43
2018-08-20T13:31:40.015Z,20.45
2018-08-20T13:34:09.030Z,20.50
2018-08-20T13:36:37.799Z,20.50
2018-08-20T13:39:07.863Z,20.47
2018-08-20T13:41:36.431Z,20.40
2018-08-20T13:44:05.397Z,20.30
2018-08-20T13:46:33.901Z,20.24
2018-08-20T13:49:02.430Z,20.20
2018-08-20T13:51:31.116Z,20.19
2018-08-20T13:53:59.637Z,20.20
2018-08-20T13:56:28.096Z,20.27
2018-08-20T13:58:57.180Z,20.48
2018-08-20T14:01:25.646Z,20.73
2018-08-20T14:03:54.621Z,21.00
2018-08-20T14:06:23.526Z,21.29
2018-08-20T14:08:52.023Z,21.76
2018-08-20T14:11:20.473Z,22.23
2018-08-20T14:13:49.274Z,22.74
2018-08-20T14:16:17.786Z,22.92
2018-08-20T14:18:46.249Z,22.89
2018-08-20T14:21:15.988Z,22.80
2018-08-20T14:23:46.472Z,22.72
2018-08-20T14:26:15.015Z,22.80
2018-08-20T14:28:44.241Z,22.82
2018-08-20T14:31:13.161Z,22.71
2018-08-20T14:33:42.587Z,22.65
2018-08-20T14:36:11.742Z,22.58
2018-08-20T14:38:40.310Z,22.59
2018-08-20T14:41:08.750Z,22.90
2018-08-20T14:43:37.531Z,22.99
2018-08-20T14:46:11.658Z,22.89
2018-08-20T14:48:40.701Z,22.98
2018-08-20T14:51:09.162Z,23.06
2018-08-20T14:53:37.902Z,22.89
2018-08-20T14:56:06.749Z,22.70
2018-08-20T14:58:35.204Z,22.50
2018-08-20T15:01:03.703Z,22.26
2018-08-20T15:03:32.607Z,22.08
2018-08-20T15:06:01.070Z,21.96
2018-08-20T15:08:29.724Z,21.81
2018-08-20T15:10:58.252Z,21.75
2018-08-20T15:13:26.682Z,21.82
2018-08-20T15:15:55.158Z,22.06
2018-08-20T15:18:24.114Z,22.93
2018-08-20T15:20:52.571Z,24.03
2018-08-20T15:23:21.069Z,24.14
2018-08-20T15:25:50.061Z,23.86
2018-08-20T15:28:18.555Z,23.47
2018-08-20T15:30:47.225Z,23.14
2018-08-20T15:33:16.753Z,22.82
2018-08-20T15:35:45.297Z,22.85
2018-08-20T15:38:13.769Z,23.56
2018-08-20T15:40:42.530Z,24.14
2018-08-20T15:43:10.972Z,23.95
2018-08-20T15:45:39.772Z,23.44
2018-08-20T15:48:09.143Z,23.07
2018-08-20T15:50:37.582Z,23.42
2018-08-20T15:53:06.219Z,23.71
2018-08-20T15:55:34.902Z,23.40
2018-08-20T15:58:03.412Z,22.89
2018-08-20T16:00:32.885Z,22.55
2018-08-20T16:03:01.659Z,22.22
2018-08-20T16:05:30.141Z,21.90
2018-08-20T16:07:58.661Z,21.77
2018-08-20T16:10:27.234Z,21.67
2018-08-20T16:12:56.220Z,21.45
2018-08-20T16:15:24.726Z,21.46
2018-08-20T16:17:53.465Z,21.92
2018-08-20T16:20:21.930Z,22.58
2018-08-20T16:22:56.968Z,22.81
2018-08-20T16:25:25.413Z,22.99
2018-08-20T16:27:53.925Z,23.34
2018-08-20T16:30:22.682Z,23.61
2018-08-20T16:32:52.193Z,23.55
2018-08-20T16:35:20.791Z,23.64
2018-08-20T16:37:49.683Z,23.73
2018-08-20T16:40:18.170Z,23.88
2018-08-20T16:42:46.653Z,23.89
2018-08-20T16:45:15.493Z,23.92
2018-08-20T16:47:43.917Z,24.07
2018-08-20T16:50:13.485Z,24.02
2018-08-20T16:52:42.394Z,23.96
2018-08-20T16:55:10.917Z,23.92
2018-08-20T16:57:40.015Z,23.82
2018-08-20T17:00:11.213Z,23.39
2018-08-20T17:02:40.585Z,22.75
2018-08-20T17:05:11.420Z,22.09
2018-08-20T17:07:40.461Z,21.51
2018-08-20T17:10:10.830Z,21.07
2018-08-20T17:12:39.797Z,20.64
2018-08-20T17:15:10.593Z,20.13
2018-08-20T17:17:39.604Z,19.72
2018-08-20T17:20:09.588Z,19.36
2018-08-20T17:22:38.038Z,18.99
2018-08-20T17:25:07.389Z,18.67
2018-08-20T17:27:36.226Z,18.46
2018-08-20T17:30:05.569Z,18.31
2018-08-20T17:32:34.094Z,18.12
2018-08-20T17:35:03.318Z,17.93
2018-08-20T17:37:32.092Z,17.82
2018-08-20T17:40:04.714Z,17.70
2018-08-20T17:42:33.857Z,17.59
2018-08-20T17:45:02.933Z,17.48
2018-08-20T17:47:32.222Z,17.42
2018-08-20T17:50:01.418Z,17.34
2018-08-20T17:52:32.362Z,17.28
2018-08-20T17:55:02.947Z,17.23
2018-08-20T17:57:31.601Z,16.06
2018-08-20T18:00:16.290Z,17.16
2018-08-20T18:02:44.950Z,17.09
2018-08-20T18:05:13.430Z,17.04
2018-08-20T18:07:42.264Z,16.99
2018-08-20T18:10:11.017Z,16.94
2018-08-20T18:12:40.205Z,16.90
2018-08-20T18:15:08.709Z,16.88
2018-08-20T18:17:37.622Z,16.84
2018-08-20T18:20:06.155Z,16.80
2018-08-20T18:22:34.639Z,16.80
2018-08-20T18:25:03.253Z,16.80
2018-08-20T18:27:35.900Z,16.06
2018-08-20T18:30:04.740Z,16.71
2018-08-20T18:32:33.209Z,16.63
2018-08-20T18:35:01.913Z,16.59
2018-08-20T18:37:32.385Z,16.54
2018-08-20T18:40:01.050Z,16.50
2018-08-20T18:42:34.837Z,16.45
2018-08-20T18:45:03.476Z,16.41
2018-08-20T18:47:31.937Z,16.37
2018-08-20T18:50:00.460Z,16.36
2018-08-20T18:52:30.397Z,16.37
2018-08-20T18:54:59.651Z,16.36
2018-08-20T18:57:32.445Z,16.35
2018-08-20T19:00:02.254Z,16.34
2018-08-20T19:02:39.322Z,16.33
2018-08-20T19:05:12.580Z,16.16
2018-08-20T19:07:41.521Z,16.35
2018-08-20T19:10:32.877Z,16.33
2018-08-20T19:13:01.457Z,16.33
2018-08-20T19:15:41.192Z,16.35
2018-08-20T19:18:11.783Z,16.37
2018-08-20T19:20:41.712Z,16.37
2018-08-20T19:23:10.681Z,16.36
2018-08-20T19:25:39.242Z,16.35
2018-08-20T19:28:13.905Z,16.32
2018-08-20T19:30:43.151Z,16.29
2018-08-20T19:33:28.493Z,16.27
2018-08-20T19:35:57.601Z,16.23
2018-08-20T19:38:26.121Z,16.17
2018-08-20T19:41:03.690Z,16.16
2018-08-20T19:43:41.317Z,16.16
2018-08-20T19:46:09.825Z,16.17
2018-08-20T19:48:38.352Z,16.15
2018-08-20T19:51:08.954Z,16.14
2018-08-20T19:53:37.474Z,16.10
2018-08-20T19:56:11.281Z,16.06
2018-08-20T19:58:42.803Z,16.03
2018-08-20T20:01:14.920Z,16.03
2018-08-20T20:03:46.185Z,16.01
2018-08-20T20:06:15.444Z,15.99
2018-08-20T20:08:44.157Z,15.96
2018-08-20T20:11:20.230Z,15.94
2018-08-20T20:13:52.661Z,15.91
2018-08-20T20:16:21.401Z,15.86
2018-08-20T20:18:50.362Z,15.80
2018-08-20T20:21:19.258Z,15.75
2018-08-20T20:23:47.818Z,15.70
2018-08-20T20:26:16.693Z,15.66
2018-08-20T20:28:45.326Z,15.61
2018-08-20T20:31:14.009Z,15.55
2018-08-20T20:33:42.486Z,15.50
2018-08-20T20:36:14.232Z,15.45
2018-08-20T20:38:42.906Z,15.40
2018-08-20T20:41:11.770Z,15.35
2018-08-20T20:43:40.487Z,15.33
2018-08-20T20:46:10.194Z,15.31
2018-08-20T20:48:39.050Z,15.29
2018-08-20T20:51:07.826Z,15.26
2018-08-20T20:53:36.388Z,15.23
2018-08-20T20:56:04.895Z,15.18
2018-08-20T20:58:36.433Z,15.17
2018-08-20T21:01:06.389Z,15.14
2018-08-20T21:03:35.213Z,15.11
2018-08-20T21:06:04.511Z,15.06
2018-08-20T21:08:41.345Z,15.07
2018-08-20T21:11:11.705Z,15.10
2018-08-20T21:13:40.520Z,15.11
2018-08-20T21:16:10.599Z,15.15
2018-08-20T21:18:44.987Z,15.19
2018-08-20T21:21:14.190Z,15.22
2018-08-20T21:23:42.752Z,15.21
2018-08-20T21:26:11.720Z,15.21
2018-08-20T21:28:57.602Z,15.23
2018-08-20T21:31:27.408Z,15.24
2018-08-20T21:33:57.491Z,15.25
2018-08-20T21:36:26.112Z,15.28
2018-08-20T21:38:54.625Z,15.29
2018-08-20T21:41:24.353Z,15.25
2018-08-20T21:43:52.983Z,15.24
2018-08-20T21:46:21.558Z,15.18
2018-08-20T21:48:50.574Z,15.12
2018-08-20T21:51:28.872Z,15.05
2018-08-20T21:53:58.044Z,14.97
2018-08-20T21:56:36.382Z,14.88
2018-08-20T21:59:05.253Z,14.79
2018-08-20T22:01:33.746Z,14.74
2018-08-20T22:04:06.400Z,14.70
2018-08-20T22:06:35.329Z,14.58
2018-08-20T22:09:03.882Z,14.53
2018-08-20T22:11:32.397Z,11.99
2018-08-20T22:14:00.967Z,14.40
2018-08-20T22:16:29.769Z,14.33
2018-08-20T22:18:59.409Z,14.29
2018-08-20T22:21:28.341Z,14.26
2018-08-20T22:23:58.752Z,14.26
2018-08-20T22:26:27.401Z,14.26
2018-08-20T22:28:56.239Z,14.28
2018-08-20T22:31:24.785Z,14.29
2018-08-20T22:33:59.037Z,14.28
2018-08-20T22:36:30.916Z,14.23
2018-08-20T22:39:05.700Z,14.18
2018-08-20T22:41:34.685Z,14.10
2018-08-20T22:44:03.306Z,14.06
2018-08-20T22:46:31.745Z,14.00
2018-08-20T22:49:00.885Z,13.96
2018-08-20T22:51:30.338Z,13.90
2018-08-20T22:54:00.458Z,13.82
2018-08-20T22:56:31.650Z,13.79
2018-08-20T22:59:07.461Z,13.72
2018-08-20T23:01:36.072Z,13.65
2018-08-20T23:04:05.050Z,13.63
2018-08-20T23:06:33.513Z,13.59
2018-08-20T23:09:18.313Z,13.49
2018-08-20T23:11:47.205Z,13.41
2018-08-20T23:14:15.693Z,13.34
2018-08-20T23:16:44.261Z,13.34
2018-08-20T23:19:12.974Z,13.31
2018-08-20T23:21:43.033Z,13.29
2018-08-20T23:24:12.481Z,13.29
2018-08-20T23:26:41.117Z,13.27
2018-08-20T23:29:10.005Z,13.27
2018-08-20T23:31:38.969Z,13.22
2018-08-20T23:34:10.781Z,13.21
2018-08-20T23:36:40.419Z,13.17
2018-08-20T23:39:10.798Z,12.48
2018-08-20T23:41:39.584Z,13.14
2018-08-20T23:44:08.186Z,13.12
2018-08-20T23:46:42.103Z,13.13
2018-08-20T23:49:10.658Z,13.09
2018-08-20T23:51:39.157Z,13.10
2018-08-20T23:54:07.798Z,13.11
2018-08-20T23:56:36.250Z,13.10
2018-08-20T23:59:04.713Z,13.09
